No se requiere un especial cuidado respecto a la situación meteorológica.   -   No hay avisos

Informes METAR

 

LEZL - Sevilla, Spain
Distancia de la estación: ENE 8km
Actualización: 28/06/2017 09:00
Despejado
Despejado
 Viento de ONO
Viento: ONO 11 km/h
Temperatura: 21°C
Rocío: 14°C
Humedad: 64%
Barómetro: 1016 hPa
Resumen: Despejado
Visibilidad: mayor de 10 km
2017/06/28 07:00 LEZL 280700Z 29006KT 260V330 CAVOK 21/14 Q1016 NOSIG
LEMO - Morón, Spain
Distancia de la estación: SE 43km
Actualización: 28/06/2017 09:00
Despejado
Despejado
 Viento de SO
Viento: SO 13 km/h
Temperatura: 19°C
Rocío: 15°C
Humedad: 78%
Barómetro: 1016 hPa
Resumen: Despejado
Visibilidad: mayor de 10 km
2017/06/28 07:00 LEMO 280700Z 22007KT 190V260 CAVOK 19/15 Q1016 NOSIG
LEJR - Jeréz, Spain
Distancia de la estación: S 71km
Actualización: 28/06/2017 09:00
Poco nuboso
Poco nuboso
 Viento de ONO
Viento: ONO 13 km/h
Temperatura: 20°C
Rocío: 16°C
Humedad: 78%
Barómetro: 1017 hPa
Nubes: Poco nuboso
Visibilidad: 10 km
Detalles de las nubes: Poco nuboso 610 m
2017/06/28 07:00 LEJR 280700Z 29007KT 250V330 9999 FEW020 20/16 Q1017
 
LERT - Rota, Spain
Distancia de la estación: SSO 89km
Actualización: 28/06/2017 09:00
Parcialmente nuboso
Parcialmente nuboso
 Viento de NO
Viento: NO 17 km/h
Temperatura: 21°C
Rocío: 16°C
Humedad: 73%
Barómetro: 1017 hPa
Nubes: Parcialmente nuboso
Visibilidad: 10 km
Detalles de las nubes: Parcialmente nuboso 610 m
2017/06/28 07:00 LERT 280700Z 31009KT 260V360 9999 SCT020 21/16 Q1017 NOSIG
LEMG - Málaga, Spain
Distancia de la estación: ESE 157km
Actualización: 28/06/2017 09:00
Poco nuboso
Poco nuboso
 Viento de ONO
Viento: ONO 17 km/h
Temperatura: 24°C
Rocío: 14°C
Humedad: 54%
Barómetro: 1014 hPa
Nubes: Poco nuboso
Visibilidad: 10 km
Detalles de las nubes: Poco nuboso 914 m
2017/06/28 07:00 LEMG 280700Z 30009KT 9999 FEW030 24/14 Q1014 NOSIG
LEBA - Córdoba, Spain
Distancia de la estación: ENE 115km
Actualización: 28/06/2017 09:00
Despejado
Despejado
 Viento de O
Viento: O 17 km/h
Temperatura: 21°C
Rocío: 13°C
Humedad: 60%
Barómetro: 1016 hPa
Resumen: Despejado
Visibilidad: mayor de 10 km
2017/06/28 07:00 LEBA 280700Z 26009KT CAVOK 21/13 Q1016
 
LEGR - Granada, Spain
Distancia de la estación: E 198km
Actualización: 28/06/2017 09:00
Poco nuboso
Poco nuboso
 Viento de O
Viento: O 15 km/h
Temperatura: 20°C
Rocío: 13°C
Humedad: 64%
Barómetro: 1017 hPa
Nubes: Poco nuboso
Visibilidad: 10 km
Detalles de las nubes: Poco nuboso 914 m
2017/06/28 07:00 LEGR 280700Z 26008KT 230V310 9999 FEW030 20/13 Q1017
LEAM - Almería, Spain
Distancia de la estación: E 326km
Actualización: 28/06/2017 09:00
Despejado
Despejado
 Viento de variable
Viento: variable 4 km/h
Temperatura: 23°C
Rocío: 19°C
Humedad: 78%
Barómetro: 1011 hPa
Resumen: Despejado
Visibilidad: mayor de 10 km
2017/06/28 07:00 LEAM 280700Z VRB02KT CAVOK 23/19 Q1011
LEMD - Madrid/Barajas, Spain
Distancia de la estación: NNE 402km
Actualización: 28/06/2017 09:00
Poco nuboso
Poco nuboso
 Viento de SSO
Viento: SSO 19 km/h, Racha: 39 km/h
Temperatura: 19°C
Rocío: 11°C
Humedad: 60%
Barómetro: 1012 hPa
Nubes: Poco nuboso
Visibilidad: 10 km
Detalles de las nubes: Poco nuboso 1829 m
2017/06/28 07:00 LEMD 280700Z 21010G21KT 9999 FEW060 19/11 Q1012 NOSIG
 
LEVD - Valladolid, Spain
Distancia de la estación: N 492km
Actualización: 28/06/2017 09:00
Llovizna, Cubierto
Llovizna, Cubierto
 Viento de SO
Viento: SO 22 km/h
Temperatura: 13°C
Rocío: 12°C
Humedad: 94%
Barómetro: 1011 hPa
Resumen: Llovizna
Nubes: Cubierto
Visibilidad: 10 km
Detalles de las nubes: Muy nuboso 152 m
Cubierto 366 m
2017/06/28 07:00 LEVD 280700Z 23012KT 9999 -DZ BKN005 OVC012 13/12 Q1011
LEBL - Barcelona, Spain
Distancia de la estación: NE 816km
Actualización: 28/06/2017 09:00
Poco nuboso
Poco nuboso
 Viento de S
Viento: S 13 km/h
Temperatura: 25°C
Rocío: 19°C
Humedad: 69%
Barómetro: 1006 hPa
Nubes: Poco nuboso
Visibilidad: 10 km
Detalles de las nubes: Poco nuboso 610 m
Poco nuboso 762 m
2017/06/28 07:00 LEBL 280700Z 19007KT 140V220 9999 FEW020 FEW025TCU 25/19 Q1006 NOSIG
LEVC - Valencia, Spain
Distancia de la estación: ENE 535km
Actualización: 28/06/2017 09:00
Poco nuboso
Poco nuboso
 Viento de O
Viento: O 20 km/h
Temperatura: 27°C
Rocío: 9°C
Humedad: 32%
Barómetro: 1008 hPa
Nubes: Poco nuboso
Visibilidad: 10 km
Detalles de las nubes: Poco nuboso 914 m
2017/06/28 07:00 LEVC 280700Z 26011KT 220V300 9999 FEW030 27/09 Q1008 NOSIG